Lyman, Washington
Current Conditions -  °F | °C
As of 4:15 PM on Friday 28 Nov 2014 (Local Time) from KBVS Reporting Station
Overcast Overcast  
Wind Chill: 39°   Ceiling: 4800
Heat Index: 39°   Visibility: 10mi
Dew Point: 37°   Wind: 3mph
Humidity: 93%   Direction: 220°SW
Pressure: 29.48"   Gusts: NA
Location:  48.53°N, 122.06°W
Report Text: KBVS 290015Z AUTO 22003KT 10SM OVC048 04/03 A2948 RMK A01 P000
Loading
Personal Weather Stations






























Interactive Weather Map New forecast layout! Learn more

10-Day Weather Forecast

Advertisements
Track Severe Weather on mobile